createdAt,value
2023-05-09T00:05:53.238Z,100
2023-05-09T00:15:53.841Z,100
2023-05-09T00:25:54.150Z,100
2023-05-09T00:35:54.903Z,100
2023-05-09T00:45:55.060Z,100
2023-05-09T00:55:55.808Z,100
2023-05-09T02:05:59.414Z,100
2023-05-09T02:26:00.263Z,100
2023-05-09T02:36:00.873Z,100
2023-05-09T02:46:01.035Z,100
2023-05-09T02:56:01.998Z,100
2023-05-09T03:06:02.315Z,100
2023-05-09T03:16:02.693Z,100
2023-05-09T03:26:03.617Z,100
2023-05-09T03:36:04.287Z,100
2023-05-09T03:46:05.355Z,100
2023-05-09T03:56:05.928Z,100
2023-05-09T04:06:06.611Z,100
2023-05-09T04:16:07.331Z,100
2023-05-09T04:26:08.078Z,100
2023-05-09T04:46:09.082Z,100
2023-05-09T04:56:09.911Z,100
2023-05-09T05:06:10.771Z,100
2023-05-09T05:26:11.495Z,100
2023-05-09T05:36:12.437Z,100
2023-05-09T05:46:13.171Z,100
2023-05-09T05:56:13.607Z,100
2023-05-09T06:06:14.265Z,100
2023-05-09T06:16:19.083Z,100
2023-05-09T06:26:14.621Z,100
2023-05-09T06:36:14.785Z,100
2023-05-09T06:46:15.156Z,100
2023-05-09T06:56:16.033Z,100
2023-05-09T07:06:16.072Z,100
2023-05-09T07:16:16.713Z,100
2023-05-09T07:26:16.819Z,100
2023-05-09T07:36:17.126Z,100
2023-05-09T07:46:17.699Z,100
2023-05-09T07:56:17.922Z,100
2023-05-09T08:06:18.361Z,100
2023-05-09T08:16:18.636Z,99
2023-05-09T08:26:18.790Z,98
2023-05-09T08:36:19.022Z,97
2023-05-09T08:46:19.773Z,96
2023-05-09T08:56:20.249Z,95
2023-05-09T09:06:21.345Z,94
2023-05-09T09:16:21.596Z,93
2023-05-09T09:26:22.350Z,87
2023-05-09T09:46:23.254Z,86
2023-05-09T09:56:23.742Z,85
2023-05-09T10:06:24.656Z,82
2023-05-09T10:16:31.883Z,79
2023-05-09T10:26:25.598Z,77
2023-05-09T10:36:26.258Z,77
2023-05-09T10:46:26.642Z,74
2023-05-09T10:56:26.752Z,72
2023-05-09T11:06:26.859Z,71
2023-05-09T11:16:27.402Z,72
2023-05-09T11:26:27.695Z,73
2023-05-09T11:36:28.254Z,74
2023-05-09T11:46:28.834Z,75
2023-05-09T11:56:28.957Z,76
2023-05-09T12:16:30.531Z,75
2023-05-09T12:26:30.916Z,74
2023-05-09T12:36:31.135Z,72
2023-05-09T12:46:32.258Z,72
2023-05-09T12:56:32.770Z,73
2023-05-09T13:06:33.436Z,70
2023-05-09T13:16:34.114Z,69
2023-05-09T13:26:34.718Z,66
2023-05-09T13:36:34.933Z,68
2023-05-09T13:46:35.429Z,68
2023-05-09T13:56:35.916Z,68
2023-05-09T14:06:36.644Z,69
2023-05-09T14:26:37.430Z,86
2023-05-09T14:36:37.684Z,88
2023-05-09T14:46:38.739Z,91
2023-05-09T14:56:39.061Z,93
2023-05-09T15:06:39.878Z,97
2023-05-09T15:26:41.086Z,99
2023-05-09T15:36:41.428Z,100
2023-05-09T15:46:42.295Z,100
2023-05-09T15:56:42.989Z,100
2023-05-09T16:06:43.302Z,100
2023-05-09T16:36:44.745Z,100
2023-05-09T17:06:47.350Z,100
2023-05-09T17:16:48.245Z,100
2023-05-09T17:26:48.747Z,100
2023-05-09T17:36:49.656Z,100
2023-05-09T17:46:50.608Z,100
2023-05-09T17:56:51.600Z,100
2023-05-09T18:06:51.724Z,100
2023-05-09T18:36:53.539Z,100
2023-05-09T18:46:54.604Z,100
2023-05-09T19:16:55.723Z,100
2023-05-09T20:06:58.545Z,100
2023-05-09T20:26:59.303Z,100
2023-05-09T21:27:04.000Z,100
2023-05-09T21:37:04.963Z,100
2023-05-09T22:17:07.761Z,100
2023-05-09T22:27:08.613Z,100
2023-05-09T22:37:08.987Z,100
2023-05-09T22:47:09.503Z,100
2023-05-09T23:07:10.414Z,100
2023-05-09T23:17:11.120Z,100
2023-05-09T23:27:11.496Z,100
2023-05-09T23:37:12.152Z,100
2023-05-09T23:47:12.311Z,100
